Terminal Aerodrome Forecast
Issued by NWS Wilmington, OH

Current Version | Previous Version | Text Only | Print | Product List | Glossary Off
Versions: 1 2 3 4 5 6 7 8 9 10 11 12 13 14 15 16 17 18 19 20

000
FTUS41 KILN 260500 RRA
TAFILN
TAF
KILN 260545Z 2606/2706 11007KT P6SM BKN050
      TEMPO 2606/2608 5SM -TSRA OVC050CB
     FM260800 08007KT 4SM -SHRA BR VCTS SCT020 OVC040CB
     FM261000 09007KT 3SM -SHRA BR VCTS OVC015CB
     FM261300 33012G22KT 3SM -SHRA BR OVC010
     FM261800 32010G20KT P6SM BKN025
     FM262200 32014KT P6SM SCT040 BKN100=

USA.gov is the U.S. government's official web portal to all federal, state and local government web resources and services.